sensor_id;sensor_type;location;lat;lon;timestamp;temperature;humidity
14016;DHT22;7083;48.854;9.158;2022-10-16T00:01:15;14.20;99.90
14016;DHT22;7083;48.854;9.158;2022-10-16T00:03:43;14.20;99.90
14016;DHT22;7083;48.854;9.158;2022-10-16T00:06:11;14.20;99.90
14016;DHT22;7083;48.854;9.158;2022-10-16T00:08:38;14.20;99.90
14016;DHT22;7083;48.854;9.158;2022-10-16T00:11:06;14.20;99.90
14016;DHT22;7083;48.854;9.158;2022-10-16T00:13:36;14.20;99.90
14016;DHT22;7083;48.854;9.158;2022-10-16T00:16:04;14.20;99.90
14016;DHT22;7083;48.854;9.158;2022-10-16T00:18:31;14.20;99.90
14016;DHT22;7083;48.854;9.158;2022-10-16T00:21:02;14.10;99.90
14016;DHT22;7083;48.854;9.158;2022-10-16T00:23:29;14.10;99.90
14016;DHT22;7083;48.854;9.158;2022-10-16T00:25:57;14.10;99.90
14016;DHT22;7083;48.854;9.158;2022-10-16T00:28:24;14.10;99.90
14016;DHT22;7083;48.854;9.158;2022-10-16T00:30:53;14.10;99.90
14016;DHT22;7083;48.854;9.158;2022-10-16T00:33:20;14.00;99.90
14016;DHT22;7083;48.854;9.158;2022-10-16T00:35:47;14.00;99.90
14016;DHT22;7083;48.854;9.158;2022-10-16T00:38:14;14.00;99.90
14016;DHT22;7083;48.854;9.158;2022-10-16T00:40:40;14.00;99.90
14016;DHT22;7083;48.854;9.158;2022-10-16T00:43:12;14.00;99.90
14016;DHT22;7083;48.854;9.158;2022-10-16T00:45:39;14.00;99.90
14016;DHT22;7083;48.854;9.158;2022-10-16T00:48:11;14.00;99.90
14016;DHT22;7083;48.854;9.158;2022-10-16T00:50:39;14.00;99.90
14016;DHT22;7083;48.854;9.158;2022-10-16T00:53:09;13.90;99.90
14016;DHT22;7083;48.854;9.158;2022-10-16T00:55:36;13.90;99.90
14016;DHT22;7083;48.854;9.158;2022-10-16T00:58:03;13.90;99.90
14016;DHT22;7083;48.854;9.158;2022-10-16T01:00:30;13.90;99.90
14016;DHT22;7083;48.854;9.158;2022-10-16T01:02:59;13.90;99.90
14016;DHT22;7083;48.854;9.158;2022-10-16T01:05:32;13.90;99.90
14016;DHT22;7083;48.854;9.158;2022-10-16T01:08:04;13.90;99.90
14016;DHT22;7083;48.854;9.158;2022-10-16T01:10:38;14.00;99.90
14016;DHT22;7083;48.854;9.158;2022-10-16T01:13:07;14.00;99.90
14016;DHT22;7083;48.854;9.158;2022-10-16T01:15:38;14.00;99.90
14016;DHT22;7083;48.854;9.158;2022-10-16T01:18:11;14.10;99.90
14016;DHT22;7083;48.854;9.158;2022-10-16T01:20:45;14.10;99.90
14016;DHT22;7083;48.854;9.158;2022-10-16T01:23:27;14.10;99.90
14016;DHT22;7083;48.854;9.158;2022-10-16T01:26:23;14.10;99.90
14016;DHT22;7083;48.854;9.158;2022-10-16T01:28:59;14.10;99.90
14016;DHT22;7083;48.854;9.158;2022-10-16T01:31:30;14.10;99.90
14016;DHT22;7083;48.854;9.158;2022-10-16T01:34:02;14.10;99.90
14016;DHT22;7083;48.854;9.158;2022-10-16T01:36:35;14.60;99.90
14016;DHT22;7083;48.854;9.158;2022-10-16T01:39:03;14.10;99.90
14016;DHT22;7083;48.854;9.158;2022-10-16T01:41:33;14.10;99.90
14016;DHT22;7083;48.854;9.158;2022-10-16T01:44:06;14.00;99.90
14016;DHT22;7083;48.854;9.158;2022-10-16T01:46:38;14.10;99.90
14016;DHT22;7083;48.854;9.158;2022-10-16T01:49:06;14.00;99.90
14016;DHT22;7083;48.854;9.158;2022-10-16T01:51:35;14.00;99.90
14016;DHT22;7083;48.854;9.158;2022-10-16T01:54:05;14.10;99.90
14016;DHT22;7083;48.854;9.158;2022-10-16T01:56:34;14.10;99.90
14016;DHT22;7083;48.854;9.158;2022-10-16T01:59:05;14.10;99.90
14016;DHT22;7083;48.854;9.158;2022-10-16T02:01:36;14.10;99.90
14016;DHT22;7083;48.854;9.158;2022-10-16T02:04:10;14.10;99.90
14016;DHT22;7083;48.854;9.158;2022-10-16T02:06:38;14.10;99.90
14016;DHT22;7083;48.854;9.158;2022-10-16T02:09:05;14.10;99.90
14016;DHT22;7083;48.854;9.158;2022-10-16T02:11:31;14.20;99.90
14016;DHT22;7083;48.854;9.158;2022-10-16T02:14:01;14.20;99.90
14016;DHT22;7083;48.854;9.158;2022-10-16T02:16:36;14.20;99.90
14016;DHT22;7083;48.854;9.158;2022-10-16T02:19:04;14.20;99.90
14016;DHT22;7083;48.854;9.158;2022-10-16T02:21:38;14.20;99.90
14016;DHT22;7083;48.854;9.158;2022-10-16T02:24:12;14.20;99.90
14016;DHT22;7083;48.854;9.158;2022-10-16T02:26:43;14.30;99.90
14016;DHT22;7083;48.854;9.158;2022-10-16T02:29:14;14.30;99.90
14016;DHT22;7083;48.854;9.158;2022-10-16T02:31:46;14.30;99.90
14016;DHT22;7083;48.854;9.158;2022-10-16T02:34:14;14.30;99.90
14016;DHT22;7083;48.854;9.158;2022-10-16T02:36:43;14.30;99.90
14016;DHT22;7083;48.854;9.158;2022-10-16T02:39:11;14.30;99.90
14016;DHT22;7083;48.854;9.158;2022-10-16T02:41:38;14.20;99.90
14016;DHT22;7083;48.854;9.158;2022-10-16T02:44:05;14.20;99.90
14016;DHT22;7083;48.854;9.158;2022-10-16T02:46:32;14.50;99.90
14016;DHT22;7083;48.854;9.158;2022-10-16T02:49:00;14.30;99.90
14016;DHT22;7083;48.854;9.158;2022-10-16T02:51:27;14.20;99.90
14016;DHT22;7083;48.854;9.158;2022-10-16T02:53:53;14.20;99.90
14016;DHT22;7083;48.854;9.158;2022-10-16T02:56:20;14.20;99.90
14016;DHT22;7083;48.854;9.158;2022-10-16T02:58:47;14.20;99.90
14016;DHT22;7083;48.854;9.158;2022-10-16T03:01:14;14.20;99.90
14016;DHT22;7083;48.854;9.158;2022-10-16T03:03:42;14.20;99.90
14016;DHT22;7083;48.854;9.158;2022-10-16T03:06:10;14.60;99.90
14016;DHT22;7083;48.854;9.158;2022-10-16T03:08:37;14.20;99.90
14016;DHT22;7083;48.854;9.158;2022-10-16T03:11:03;14.30;99.90
14016;DHT22;7083;48.854;9.158;2022-10-16T03:13:30;14.10;99.90
14016;DHT22;7083;48.854;9.158;2022-10-16T03:15:57;14.00;99.90
14016;DHT22;7083;48.854;9.158;2022-10-16T03:18:24;14.10;99.90
14016;DHT22;7083;48.854;9.158;2022-10-16T03:20:50;14.00;99.90
14016;DHT22;7083;48.854;9.158;2022-10-16T03:23:18;14.00;99.90
14016;DHT22;7083;48.854;9.158;2022-10-16T03:25:45;14.00;99.90
14016;DHT22;7083;48.854;9.158;2022-10-16T03:28:12;13.80;99.90
14016;DHT22;7083;48.854;9.158;2022-10-16T03:30:38;14.00;99.90
14016;DHT22;7083;48.854;9.158;2022-10-16T03:33:06;13.90;99.90
14016;DHT22;7083;48.854;9.158;2022-10-16T03:35:32;13.90;99.90
14016;DHT22;7083;48.854;9.158;2022-10-16T03:37:59;13.90;99.90
14016;DHT22;7083;48.854;9.158;2022-10-16T03:40:28;13.90;99.90
14016;DHT22;7083;48.854;9.158;2022-10-16T03:42:55;13.90;99.90
14016;DHT22;7083;48.854;9.158;2022-10-16T03:45:22;13.90;99.90
14016;DHT22;7083;48.854;9.158;2022-10-16T03:47:49;13.80;99.90
14016;DHT22;7083;48.854;9.158;2022-10-16T03:50:16;13.80;99.90
14016;DHT22;7083;48.854;9.158;2022-10-16T03:52:43;13.80;99.90
14016;DHT22;7083;48.854;9.158;2022-10-16T03:55:09;13.80;99.90
14016;DHT22;7083;48.854;9.158;2022-10-16T03:57:37;13.80;99.90
14016;DHT22;7083;48.854;9.158;2022-10-16T04:00:05;13.80;99.90
14016;DHT22;7083;48.854;9.158;2022-10-16T04:02:32;13.70;99.90
14016;DHT22;7083;48.854;9.158;2022-10-16T04:04:59;13.70;99.90
14016;DHT22;7083;48.854;9.158;2022-10-16T04:07:25;13.70;99.90
14016;DHT22;7083;48.854;9.158;2022-10-16T04:09:52;13.70;99.90
14016;DHT22;7083;48.854;9.158;2022-10-16T04:12:19;13.60;99.90
14016;DHT22;7083;48.854;9.158;2022-10-16T04:14:47;13.60;99.90
14016;DHT22;7083;48.854;9.158;2022-10-16T04:17:13;13.60;99.90
14016;DHT22;7083;48.854;9.158;2022-10-16T04:19:40;13.50;99.90
14016;DHT22;7083;48.854;9.158;2022-10-16T04:22:07;13.40;99.90
14016;DHT22;7083;48.854;9.158;2022-10-16T04:24:33;13.50;99.90
14016;DHT22;7083;48.854;9.158;2022-10-16T04:27:00;13.50;99.90
14016;DHT22;7083;48.854;9.158;2022-10-16T04:29:27;13.30;99.90
14016;DHT22;7083;48.854;9.158;2022-10-16T04:31:55;13.50;99.90
14016;DHT22;7083;48.854;9.158;2022-10-16T04:34:22;13.50;99.90
14016;DHT22;7083;48.854;9.158;2022-10-16T04:36:49;13.50;99.90
14016;DHT22;7083;48.854;9.158;2022-10-16T04:39:16;13.50;99.90
14016;DHT22;7083;48.854;9.158;2022-10-16T04:41:42;13.50;99.90
14016;DHT22;7083;48.854;9.158;2022-10-16T04:44:09;13.60;99.90
14016;DHT22;7083;48.854;9.158;2022-10-16T04:46:36;13.50;99.90
14016;DHT22;7083;48.854;9.158;2022-10-16T04:49:04;13.60;99.90
14016;DHT22;7083;48.854;9.158;2022-10-16T04:51:31;13.60;99.90
14016;DHT22;7083;48.854;9.158;2022-10-16T04:53:58;13.60;99.90
14016;DHT22;7083;48.854;9.158;2022-10-16T04:56:25;13.60;99.90
14016;DHT22;7083;48.854;9.158;2022-10-16T04:58:51;13.60;99.90
14016;DHT22;7083;48.854;9.158;2022-10-16T05:01:18;13.60;99.90
14016;DHT22;7083;48.854;9.158;2022-10-16T05:03:45;13.60;99.90
14016;DHT22;7083;48.854;9.158;2022-10-16T05:06:13;13.60;99.90
14016;DHT22;7083;48.854;9.158;2022-10-16T05:08:39;13.60;99.90
14016;DHT22;7083;48.854;9.158;2022-10-16T05:11:06;13.60;99.90
14016;DHT22;7083;48.854;9.158;2022-10-16T05:13:33;13.60;99.90
14016;DHT22;7083;48.854;9.158;2022-10-16T05:16:00;13.60;99.90
14016;DHT22;7083;48.854;9.158;2022-10-16T05:18:26;13.60;99.90
14016;DHT22;7083;48.854;9.158;2022-10-16T05:20:53;13.60;99.90
14016;DHT22;7083;48.854;9.158;2022-10-16T05:23:21;13.60;99.90
14016;DHT22;7083;48.854;9.158;2022-10-16T05:25:52;13.60;99.90
14016;DHT22;7083;48.854;9.158;2022-10-16T05:28:20;13.50;99.90
14016;DHT22;7083;48.854;9.158;2022-10-16T05:30:46;13.50;99.90
14016;DHT22;7083;48.854;9.158;2022-10-16T05:33:13;13.50;99.90
14016;DHT22;7083;48.854;9.158;2022-10-16T05:35:40;13.50;99.90
14016;DHT22;7083;48.854;9.158;2022-10-16T05:38:06;13.50;99.90
14016;DHT22;7083;48.854;9.158;2022-10-16T05:40:35;13.50;99.90
14016;DHT22;7083;48.854;9.158;2022-10-16T05:43:01;13.50;99.90
14016;DHT22;7083;48.854;9.158;2022-10-16T05:45:28;13.50;99.90
14016;DHT22;7083;48.854;9.158;2022-10-16T05:47:55;13.40;99.90
14016;DHT22;7083;48.854;9.158;2022-10-16T05:50:22;13.40;99.90
14016;DHT22;7083;48.854;9.158;2022-10-16T05:52:48;13.60;99.90
14016;DHT22;7083;48.854;9.158;2022-10-16T05:55:15;13.50;99.90
14016;DHT22;7083;48.854;9.158;2022-10-16T05:57:43;13.50;99.90
14016;DHT22;7083;48.854;9.158;2022-10-16T06:00:10;13.50;99.90
14016;DHT22;7083;48.854;9.158;2022-10-16T06:02:37;13.50;99.90
14016;DHT22;7083;48.854;9.158;2022-10-16T06:05:04;13.50;99.90
14016;DHT22;7083;48.854;9.158;2022-10-16T06:07:34;13.50;99.90
14016;DHT22;7083;48.854;9.158;2022-10-16T06:10:00;13.50;99.90
14016;DHT22;7083;48.854;9.158;2022-10-16T06:12:28;13.50;99.90
14016;DHT22;7083;48.854;9.158;2022-10-16T06:14:56;13.60;99.90
14016;DHT22;7083;48.854;9.158;2022-10-16T06:17:22;13.60;99.90
14016;DHT22;7083;48.854;9.158;2022-10-16T06:19:49;13.60;99.90
14016;DHT22;7083;48.854;9.158;2022-10-16T06:22:16;13.50;99.90
14016;DHT22;7083;48.854;9.158;2022-10-16T06:24:43;13.60;99.90
14016;DHT22;7083;48.854;9.158;2022-10-16T06:27:09;13.70;99.90
14016;DHT22;7083;48.854;9.158;2022-10-16T06:29:36;13.60;99.90
14016;DHT22;7083;48.854;9.158;2022-10-16T06:32:04;13.70;99.90
14016;DHT22;7083;48.854;9.158;2022-10-16T06:34:31;13.70;99.90
14016;DHT22;7083;48.854;9.158;2022-10-16T06:36:58;13.80;99.90
14016;DHT22;7083;48.854;9.158;2022-10-16T06:39:24;13.80;99.90
14016;DHT22;7083;48.854;9.158;2022-10-16T06:41:51;13.80;99.90
14016;DHT22;7083;48.854;9.158;2022-10-16T06:44:18;13.90;99.90
14016;DHT22;7083;48.854;9.158;2022-10-16T06:46:44;13.90;99.90
14016;DHT22;7083;48.854;9.158;2022-10-16T06:49:12;14.00;99.90
14016;DHT22;7083;48.854;9.158;2022-10-16T06:51:46;14.10;99.90
14016;DHT22;7083;48.854;9.158;2022-10-16T06:54:14;14.10;99.90
14016;DHT22;7083;48.854;9.158;2022-10-16T06:56:41;14.10;99.90
14016;DHT22;7083;48.854;9.158;2022-10-16T06:59:07;14.10;99.90
14016;DHT22;7083;48.854;9.158;2022-10-16T07:01:34;14.10;99.90
14016;DHT22;7083;48.854;9.158;2022-10-16T07:04:01;14.30;99.90
14016;DHT22;7083;48.854;9.158;2022-10-16T07:06:32;14.40;99.90
14016;DHT22;7083;48.854;9.158;2022-10-16T07:09:02;14.50;99.90
14016;DHT22;7083;48.854;9.158;2022-10-16T07:11:28;14.70;99.90
14016;DHT22;7083;48.854;9.158;2022-10-16T07:13:55;14.80;99.90
14016;DHT22;7083;48.854;9.158;2022-10-16T07:16:23;14.80;99.90
14016;DHT22;7083;48.854;9.158;2022-10-16T07:18:50;14.90;99.90
14016;DHT22;7083;48.854;9.158;2022-10-16T07:21:23;14.90;99.90
14016;DHT22;7083;48.854;9.158;2022-10-16T07:23:53;14.90;99.90
14016;DHT22;7083;48.854;9.158;2022-10-16T07:26:19;14.90;99.90
14016;DHT22;7083;48.854;9.158;2022-10-16T07:28:46;14.90;99.90
14016;DHT22;7083;48.854;9.158;2022-10-16T07:31:14;14.90;99.90
14016;DHT22;7083;48.854;9.158;2022-10-16T07:33:43;14.90;99.90
14016;DHT22;7083;48.854;9.158;2022-10-16T07:36:11;14.90;99.90
14016;DHT22;7083;48.854;9.158;2022-10-16T07:38:38;14.50;99.90
14016;DHT22;7083;48.854;9.158;2022-10-16T07:41:07;14.90;99.90
14016;DHT22;7083;48.854;9.158;2022-10-16T07:43:35;14.90;99.90
14016;DHT22;7083;48.854;9.158;2022-10-16T07:46:02;14.90;99.90
14016;DHT22;7083;48.854;9.158;2022-10-16T07:48:31;14.90;99.90
14016;DHT22;7083;48.854;9.158;2022-10-16T07:50:58;15.00;99.90
14016;DHT22;7083;48.854;9.158;2022-10-16T07:53:25;14.90;99.90
14016;DHT22;7083;48.854;9.158;2022-10-16T07:55:54;14.60;99.90
14016;DHT22;7083;48.854;9.158;2022-10-16T07:58:24;15.20;99.90
14016;DHT22;7083;48.854;9.158;2022-10-16T08:00:51;15.30;99.90
14016;DHT22;7083;48.854;9.158;2022-10-16T08:03:17;15.40;99.90
14016;DHT22;7083;48.854;9.158;2022-10-16T08:05:44;15.50;99.90
14016;DHT22;7083;48.854;9.158;2022-10-16T08:08:13;15.60;99.90
14016;DHT22;7083;48.854;9.158;2022-10-16T08:10:40;15.70;99.90
14016;DHT22;7083;48.854;9.158;2022-10-16T08:13:07;15.80;99.90
14016;DHT22;7083;48.854;9.158;2022-10-16T08:15:35;15.90;99.90
14016;DHT22;7083;48.854;9.158;2022-10-16T08:18:03;16.20;99.90
14016;DHT22;7083;48.854;9.158;2022-10-16T08:20:31;15.90;99.90
14016;DHT22;7083;48.854;9.158;2022-10-16T08:22:59;16.10;99.90
14016;DHT22;7083;48.854;9.158;2022-10-16T08:25:26;16.00;99.90
14016;DHT22;7083;48.854;9.158;2022-10-16T08:27:53;16.20;99.90
14016;DHT22;7083;48.854;9.158;2022-10-16T08:30:21;16.30;99.90
14016;DHT22;7083;48.854;9.158;2022-10-16T08:32:49;16.50;99.90
14016;DHT22;7083;48.854;9.158;2022-10-16T08:35:16;16.60;99.90
14016;DHT22;7083;48.854;9.158;2022-10-16T08:37:43;16.70;99.90
14016;DHT22;7083;48.854;9.158;2022-10-16T08:40:17;16.80;99.90
14016;DHT22;7083;48.854;9.158;2022-10-16T08:42:55;17.10;99.90
14016;DHT22;7083;48.854;9.158;2022-10-16T08:45:36;16.90;99.90
14016;DHT22;7083;48.854;9.158;2022-10-16T08:48:33;16.70;99.90
14016;DHT22;7083;48.854;9.158;2022-10-16T08:51:43;18.90;99.90
14016;DHT22;7083;48.854;9.158;2022-10-16T08:54:30;17.60;99.90
14016;DHT22;7083;48.854;9.158;2022-10-16T08:57:24;17.30;99.90
14016;DHT22;7083;48.854;9.158;2022-10-16T09:00:11;18.70;99.90
14016;DHT22;7083;48.854;9.158;2022-10-16T09:03:01;17.40;99.90
14016;DHT22;7083;48.854;9.158;2022-10-16T09:06:16;17.90;99.90
14016;DHT22;7083;48.854;9.158;2022-10-16T09:09:09;17.50;99.90
14016;DHT22;7083;48.854;9.158;2022-10-16T09:11:56;17.90;99.90
14016;DHT22;7083;48.854;9.158;2022-10-16T09:14:56;16.30;99.90
14016;DHT22;7083;48.854;9.158;2022-10-16T09:17:41;16.60;99.90
14016;DHT22;7083;48.854;9.158;2022-10-16T09:20:36;18.30;99.90
14016;DHT22;7083;48.854;9.158;2022-10-16T09:23:24;17.70;99.90
14016;DHT22;7083;48.854;9.158;2022-10-16T09:26:09;16.70;99.90
14016;DHT22;7083;48.854;9.158;2022-10-16T09:29:05;16.70;99.90
14016;DHT22;7083;48.854;9.158;2022-10-16T09:32:10;18.60;99.90
14016;DHT22;7083;48.854;9.158;2022-10-16T09:37:57;16.60;99.90
14016;DHT22;7083;48.854;9.158;2022-10-16T09:40:41;17.10;99.90
14016;DHT22;7083;48.854;9.158;2022-10-16T09:43:34;18.20;99.90
14016;DHT22;7083;48.854;9.158;2022-10-16T09:46:41;16.00;99.90
14016;DHT22;7083;48.854;9.158;2022-10-16T09:49:21;16.20;99.90
14016;DHT22;7083;48.854;9.158;2022-10-16T09:52:04;17.00;99.90
14016;DHT22;7083;48.854;9.158;2022-10-16T09:55:12;17.90;99.90
14016;DHT22;7083;48.854;9.158;2022-10-16T09:57:51;17.40;99.90
14016;DHT22;7083;48.854;9.158;2022-10-16T10:00:19;15.90;99.90
14016;DHT22;7083;48.854;9.158;2022-10-16T10:03:10;17.60;99.90
14016;DHT22;7083;48.854;9.158;2022-10-16T10:05:50;17.80;99.90
14016;DHT22;7083;48.854;9.158;2022-10-16T10:08:22;19.50;99.90
14016;DHT22;7083;48.854;9.158;2022-10-16T10:10:49;19.40;99.90
14016;DHT22;7083;48.854;9.158;2022-10-16T10:13:19;18.00;99.90
14016;DHT22;7083;48.854;9.158;2022-10-16T10:15:48;18.10;99.90
14016;DHT22;7083;48.854;9.158;2022-10-16T10:18:16;18.30;99.90
14016;DHT22;7083;48.854;9.158;2022-10-16T10:20:45;19.20;99.90
14016;DHT22;7083;48.854;9.158;2022-10-16T10:23:21;18.40;99.90
14016;DHT22;7083;48.854;9.158;2022-10-16T10:25:52;18.50;99.90
14016;DHT22;7083;48.854;9.158;2022-10-16T10:28:43;18.70;99.90
14016;DHT22;7083;48.854;9.158;2022-10-16T10:31:14;18.90;99.90
14016;DHT22;7083;48.854;9.158;2022-10-16T10:33:46;19.10;99.90
14016;DHT22;7083;48.854;9.158;2022-10-16T10:36:29;19.20;99.90
14016;DHT22;7083;48.854;9.158;2022-10-16T10:38:58;19.30;99.90
14016;DHT22;7083;48.854;9.158;2022-10-16T10:41:51;19.30;99.90
14016;DHT22;7083;48.854;9.158;2022-10-16T10:44:32;19.40;99.90
14016;DHT22;7083;48.854;9.158;2022-10-16T10:47:08;19.60;99.90
14016;DHT22;7083;48.854;9.158;2022-10-16T10:49:49;19.80;99.90
14016;DHT22;7083;48.854;9.158;2022-10-16T10:52:41;19.10;99.90
14016;DHT22;7083;48.854;9.158;2022-10-16T10:55:20;20.20;99.90
14016;DHT22;7083;48.854;9.158;2022-10-16T10:58:03;20.40;99.90
14016;DHT22;7083;48.854;9.158;2022-10-16T11:00:42;20.60;99.90
14016;DHT22;7083;48.854;9.158;2022-10-16T11:03:22;20.80;99.90
14016;DHT22;7083;48.854;9.158;2022-10-16T11:05:56;22.00;99.90
14016;DHT22;7083;48.854;9.158;2022-10-16T11:08:31;20.80;99.90
14016;DHT22;7083;48.854;9.158;2022-10-16T11:11:01;20.70;99.90
14016;DHT22;7083;48.854;9.158;2022-10-16T11:13:33;20.70;99.90
14016;DHT22;7083;48.854;9.158;2022-10-16T11:16:10;20.50;99.90
14016;DHT22;7083;48.854;9.158;2022-10-16T11:18:46;19.90;99.90
14016;DHT22;7083;48.854;9.158;2022-10-16T11:21:18;20.50;99.90
14016;DHT22;7083;48.854;9.158;2022-10-16T11:23:50;20.90;99.90
14016;DHT22;7083;48.854;9.158;2022-10-16T11:26:20;20.40;99.90
14016;DHT22;7083;48.854;9.158;2022-10-16T11:28:49;20.60;99.90
14016;DHT22;7083;48.854;9.158;2022-10-16T11:31:24;20.30;99.90
14016;DHT22;7083;48.854;9.158;2022-10-16T11:33:59;20.70;99.90
14016;DHT22;7083;48.854;9.158;2022-10-16T11:36:34;20.70;99.90
14016;DHT22;7083;48.854;9.158;2022-10-16T11:39:08;20.30;99.90
14016;DHT22;7083;48.854;9.158;2022-10-16T11:41:39;20.40;99.90
14016;DHT22;7083;48.854;9.158;2022-10-16T11:44:19;20.90;99.90
14016;DHT22;7083;48.854;9.158;2022-10-16T11:46:57;21.30;99.90
14016;DHT22;7083;48.854;9.158;2022-10-16T11:49:26;21.10;99.90
14016;DHT22;7083;48.854;9.158;2022-10-16T11:52:00;20.10;99.90
14016;DHT22;7083;48.854;9.158;2022-10-16T11:54:38;21.40;99.90
14016;DHT22;7083;48.854;9.158;2022-10-16T11:57:11;21.50;99.90
14016;DHT22;7083;48.854;9.158;2022-10-16T11:59:43;21.70;99.90
14016;DHT22;7083;48.854;9.158;2022-10-16T12:02:29;21.80;99.90
14016;DHT22;7083;48.854;9.158;2022-10-16T12:05:06;22.10;99.50
14016;DHT22;7083;48.854;9.158;2022-10-16T12:07:43;22.20;98.60
14016;DHT22;7083;48.854;9.158;2022-10-16T12:10:19;22.30;97.40
14016;DHT22;7083;48.854;9.158;2022-10-16T12:12:46;23.20;98.90
14016;DHT22;7083;48.854;9.158;2022-10-16T12:15:23;21.30;99.90
14016;DHT22;7083;48.854;9.158;2022-10-16T12:17:52;22.20;99.70
14016;DHT22;7083;48.854;9.158;2022-10-16T12:20:27;21.90;99.10
14016;DHT22;7083;48.854;9.158;2022-10-16T12:22:58;22.10;99.30
14016;DHT22;7083;48.854;9.158;2022-10-16T12:25:28;22.10;99.50
14016;DHT22;7083;48.854;9.158;2022-10-16T12:27:57;22.20;99.90
14016;DHT22;7083;48.854;9.158;2022-10-16T12:30:26;22.30;99.90
14016;DHT22;7083;48.854;9.158;2022-10-16T12:32:55;21.10;99.90
14016;DHT22;7083;48.854;9.158;2022-10-16T12:35:25;21.90;99.90
14016;DHT22;7083;48.854;9.158;2022-10-16T12:37:53;22.50;99.90
14016;DHT22;7083;48.854;9.158;2022-10-16T12:40:29;22.40;99.90
14016;DHT22;7083;48.854;9.158;2022-10-16T12:42:56;22.40;98.80
14016;DHT22;7083;48.854;9.158;2022-10-16T12:45:27;21.60;98.80
14016;DHT22;7083;48.854;9.158;2022-10-16T12:47:56;23.80;98.90
14016;DHT22;7083;48.854;9.158;2022-10-16T12:50:27;22.80;98.20
14016;DHT22;7083;48.854;9.158;2022-10-16T12:52:54;22.90;97.30
14016;DHT22;7083;48.854;9.158;2022-10-16T12:55:22;23.20;95.10
14016;DHT22;7083;48.854;9.158;2022-10-16T12:58:14;24.20;94.70
14016;DHT22;7083;48.854;9.158;2022-10-16T13:00:45;23.30;94.60
14016;DHT22;7083;48.854;9.158;2022-10-16T13:06:37;23.40;92.90
14016;DHT22;7083;48.854;9.158;2022-10-16T13:09:24;23.50;93.20
14016;DHT22;7083;48.854;9.158;2022-10-16T13:12:06;23.70;94.90
14016;DHT22;7083;48.854;9.158;2022-10-16T13:15:09;23.80;92.40
14016;DHT22;7083;48.854;9.158;2022-10-16T13:17:47;23.70;91.80
14016;DHT22;7083;48.854;9.158;2022-10-16T13:20:22;23.80;91.70
14016;DHT22;7083;48.854;9.158;2022-10-16T13:22:59;23.70;92.30
14016;DHT22;7083;48.854;9.158;2022-10-16T13:25:39;23.70;92.30
14016;DHT22;7083;48.854;9.158;2022-10-16T13:28:10;23.70;93.10
14016;DHT22;7083;48.854;9.158;2022-10-16T13:30:40;23.90;92.90
14016;DHT22;7083;48.854;9.158;2022-10-16T13:33:14;23.70;92.20
14016;DHT22;7083;48.854;9.158;2022-10-16T13:35:49;23.50;92.50
14016;DHT22;7083;48.854;9.158;2022-10-16T13:38:18;23.20;93.10
14016;DHT22;7083;48.854;9.158;2022-10-16T13:40:53;23.20;93.20
14016;DHT22;7083;48.854;9.158;2022-10-16T13:43:24;23.10;93.20
14016;DHT22;7083;48.854;9.158;2022-10-16T13:45:59;23.00;94.10
14016;DHT22;7083;48.854;9.158;2022-10-16T13:48:28;22.90;95.00
14016;DHT22;7083;48.854;9.158;2022-10-16T13:51:04;22.90;93.80
14016;DHT22;7083;48.854;9.158;2022-10-16T13:53:32;23.10;95.20
14016;DHT22;7083;48.854;9.158;2022-10-16T13:56:00;23.10;96.10
14016;DHT22;7083;48.854;9.158;2022-10-16T13:58:27;23.40;97.60
14016;DHT22;7083;48.854;9.158;2022-10-16T14:00:56;24.00;97.00
14016;DHT22;7083;48.854;9.158;2022-10-16T14:03:24;24.20;94.00
14016;DHT22;7083;48.854;9.158;2022-10-16T14:05:53;23.90;91.30
14016;DHT22;7083;48.854;9.158;2022-10-16T14:08:22;23.70;93.60
14016;DHT22;7083;48.854;9.158;2022-10-16T14:10:51;23.30;92.00
14016;DHT22;7083;48.854;9.158;2022-10-16T14:13:20;23.00;92.00
14016;DHT22;7083;48.854;9.158;2022-10-16T14:15:51;22.70;93.40
14016;DHT22;7083;48.854;9.158;2022-10-16T14:18:21;21.70;94.60
14016;DHT22;7083;48.854;9.158;2022-10-16T14:20:49;22.40;96.00
14016;DHT22;7083;48.854;9.158;2022-10-16T14:23:23;21.30;96.60
14016;DHT22;7083;48.854;9.158;2022-10-16T14:25:51;22.70;98.50
14016;DHT22;7083;48.854;9.158;2022-10-16T14:28:20;22.20;97.60
14016;DHT22;7083;48.854;9.158;2022-10-16T14:30:52;21.70;97.40
14016;DHT22;7083;48.854;9.158;2022-10-16T14:33:22;22.10;98.30
14016;DHT22;7083;48.854;9.158;2022-10-16T14:36:01;22.00;99.60
14016;DHT22;7083;48.854;9.158;2022-10-16T14:38:30;22.00;99.90
14016;DHT22;7083;48.854;9.158;2022-10-16T14:40:59;22.00;99.00
14016;DHT22;7083;48.854;9.158;2022-10-16T14:43:31;21.90;98.60
14016;DHT22;7083;48.854;9.158;2022-10-16T14:45:59;21.90;99.90
14016;DHT22;7083;48.854;9.158;2022-10-16T14:48:26;21.80;99.90
14016;DHT22;7083;48.854;9.158;2022-10-16T14:50:53;21.80;99.90
14016;DHT22;7083;48.854;9.158;2022-10-16T14:53:19;22.10;99.90
14016;DHT22;7083;48.854;9.158;2022-10-16T14:55:48;22.00;99.90
14016;DHT22;7083;48.854;9.158;2022-10-16T14:58:16;22.00;99.90
14016;DHT22;7083;48.854;9.158;2022-10-16T15:00:44;22.00;99.90
14016;DHT22;7083;48.854;9.158;2022-10-16T15:03:11;22.10;99.90
14016;DHT22;7083;48.854;9.158;2022-10-16T15:05:37;22.10;99.90
14016;DHT22;7083;48.854;9.158;2022-10-16T15:08:04;22.10;99.90
14016;DHT22;7083;48.854;9.158;2022-10-16T15:10:35;22.20;99.90
14016;DHT22;7083;48.854;9.158;2022-10-16T15:13:04;22.20;99.90
14016;DHT22;7083;48.854;9.158;2022-10-16T15:15:34;22.20;99.90
14016;DHT22;7083;48.854;9.158;2022-10-16T15:18:02;22.20;99.90
14016;DHT22;7083;48.854;9.158;2022-10-16T15:20:31;22.10;99.90
14016;DHT22;7083;48.854;9.158;2022-10-16T15:22:59;21.90;99.90
14016;DHT22;7083;48.854;9.158;2022-10-16T15:25:37;21.80;99.90
14016;DHT22;7083;48.854;9.158;2022-10-16T15:28:08;21.60;99.90
14016;DHT22;7083;48.854;9.158;2022-10-16T15:30:36;21.40;99.90
14016;DHT22;7083;48.854;9.158;2022-10-16T15:33:03;21.20;99.90
14016;DHT22;7083;48.854;9.158;2022-10-16T15:35:30;21.10;99.90
14016;DHT22;7083;48.854;9.158;2022-10-16T15:37:57;21.00;99.90
14016;DHT22;7083;48.854;9.158;2022-10-16T15:40:24;20.90;99.90
14016;DHT22;7083;48.854;9.158;2022-10-16T15:42:51;20.90;99.90
14016;DHT22;7083;48.854;9.158;2022-10-16T15:45:19;20.80;99.90
14016;DHT22;7083;48.854;9.158;2022-10-16T15:47:46;20.70;99.90
14016;DHT22;7083;48.854;9.158;2022-10-16T15:50:14;20.70;99.90
14016;DHT22;7083;48.854;9.158;2022-10-16T15:52:41;20.60;99.90
14016;DHT22;7083;48.854;9.158;2022-10-16T15:55:10;20.60;99.90
14016;DHT22;7083;48.854;9.158;2022-10-16T15:57:37;20.50;99.90
14016;DHT22;7083;48.854;9.158;2022-10-16T16:00:07;20.50;99.90
14016;DHT22;7083;48.854;9.158;2022-10-16T16:02:36;20.40;99.90
14016;DHT22;7083;48.854;9.158;2022-10-16T16:05:03;20.30;99.90
14016;DHT22;7083;48.854;9.158;2022-10-16T16:07:32;20.10;99.90
14016;DHT22;7083;48.854;9.158;2022-10-16T16:09:59;20.10;99.90
14016;DHT22;7083;48.854;9.158;2022-10-16T16:12:26;20.00;99.90
14016;DHT22;7083;48.854;9.158;2022-10-16T16:14:53;19.90;99.90
14016;DHT22;7083;48.854;9.158;2022-10-16T16:17:19;19.70;99.90